Time;durP1;ratioP1;P1;durP2;ratioP2;P2;SDS_P1;SDS_P2;PMS_P1;PMS_P2;Temp;Humidity;BMP_temperature;BMP_pressure;BME280_temperature;BME280_humidity;BME280_pressure;Samples;Min_cycle;Max_cycle;Signal;HPM_P1;HPM_P2
2023/07/31 00:01:42;;;;;;;3.05;1.38;;;;;;;19.23;83.58;100129.34;5086945;28;20524;-60
2023/07/31 00:04:08;;;;;;;4.30;1.65;;;;;;;19.22;82.86;100132.16;5074190;28;20031;-60
2023/07/31 00:06:33;;;;;;;3.03;1.48;;;;;;;19.14;83.16;100123.72;5070160;28;20028;-60
2023/07/31 00:08:58;;;;;;;2.70;1.25;;;;;;;19.08;82.97;100129.47;5079926;28;20391;-60
2023/07/31 00:11:24;;;;;;;3.55;1.50;;;;;;;19.04;83.14;100126.16;5088338;28;20085;-60
2023/07/31 00:13:49;;;;;;;3.50;1.48;;;;;;;19.08;83.04;100129.47;5089573;28;20047;-59
2023/07/31 00:16:15;;;;;;;3.72;1.20;;;;;;;19.06;82.73;100120.66;5072027;28;20052;-60
2023/07/31 00:18:40;;;;;;;2.22;1.40;;;;;;;19.05;82.03;100121.59;5086786;28;20472;-59
2023/07/31 00:21:05;;;;;;;2.60;1.58;;;;;;;19.10;82.29;100111.38;5086909;28;20020;-60
2023/07/31 00:23:31;;;;;;;7.50;2.15;;;;;;;19.11;82.74;100118.53;5079637;28;20029;-60
2023/07/31 00:25:56;;;;;;;4.57;1.55;;;;;;;19.12;82.73;100110.34;5076004;28;20555;-60
2023/07/31 00:28:22;;;;;;;3.85;1.40;;;;;;;19.12;83.14;100110.34;5090399;28;20062;-60
2023/07/31 00:30:47;;;;;;;2.88;1.40;;;;;;;19.14;82.72;100113.75;5090680;28;20036;-60
2023/07/31 00:33:12;;;;;;;2.95;1.20;;;;;;;19.15;82.35;100122.72;5090387;28;20024;-60
2023/07/31 00:35:38;;;;;;;2.92;1.67;;;;;;;19.09;82.51;100118.59;5089176;28;20032;-59
2023/07/31 00:38:03;;;;;;;3.42;1.85;;;;;;;19.05;81.00;100108.13;5090760;28;20020;-60
2023/07/31 00:40:29;;;;;;;2.53;1.27;;;;;;;19.05;81.58;100113.50;5082757;28;20024;-60
2023/07/31 00:42:54;;;;;;;3.00;1.42;;;;;;;19.06;81.69;100102.63;5090759;28;20032;-60
2023/07/31 00:45:22;;;;;;;3.35;1.63;;;;;;;19.11;82.05;100110.44;5089207;28;20084;-60
2023/07/31 00:47:49;;;;;;;3.30;1.30;;;;;;;19.08;81.60;100102.53;5078568;28;20024;-60
2023/07/31 00:50:14;;;;;;;2.58;1.35;;;;;;;19.04;81.30;100101.00;5071823;28;20032;-60
2023/07/31 00:52:40;;;;;;;6.07;1.50;;;;;;;19.03;82.40;100100.13;5068533;28;20043;-60
2023/07/31 00:55:06;;;;;;;6.32;1.40;;;;;;;18.98;82.45;100102.28;5081159;28;20360;-61
2023/07/31 00:57:33;;;;;;;4.15;1.80;;;;;;;18.98;82.69;100104.09;5088343;28;20028;-60
2023/07/31 00:59:58;;;;;;;4.22;1.60;;;;;;;18.95;81.75;100094.38;5079779;28;20063;-60
2023/07/31 01:02:23;;;;;;;3.63;1.42;;;;;;;18.93;82.53;100092.78;5069853;28;20032;-60
2023/07/31 01:04:49;;;;;;;4.93;1.52;;;;;;;18.88;82.48;100084.13;5080543;28;20097;-60
2023/07/31 01:07:30;;;;;;;4.47;1.35;;;;;;;18.85;82.75;100095.06;5087985;28;20541;-60
2023/07/31 01:10:08;;;;;;;3.35;1.48;;;;;;;18.79;83.28;100085.56;5076323;28;20464;-60
2023/07/31 01:12:34;;;;;;;3.88;1.30;;;;;;;18.75;82.96;100077.75;5090244;28;20028;-60
2023/07/31 01:15:05;;;;;;;4.00;1.20;;;;;;;18.71;81.55;100087.03;5079528;28;20080;-60
2023/07/31 01:17:31;;;;;;;3.08;1.55;;;;;;;18.74;81.81;100092.22;5089152;28;20085;-60
2023/07/31 01:20:01;;;;;;;5.40;1.40;;;;;;;18.76;82.56;100082.22;5088581;28;20020;-60
2023/07/31 01:22:45;;;;;;;2.38;1.40;;;;;;;18.73;82.13;100094.03;5087929;28;20509;-60
2023/07/31 01:25:36;;;;;;;4.40;1.65;;;;;;;18.73;82.95;100090.50;5085814;28;20135;-60
2023/07/31 01:28:07;;;;;;;4.63;1.48;;;;;;;18.69;83.13;100088.94;5076352;28;20016;-60
2023/07/31 01:30:37;;;;;;;2.88;1.40;;;;;;;18.64;83.38;100091.94;5088730;28;20040;-60
2023/07/31 01:33:07;;;;;;;3.40;1.30;;;;;;;18.59;83.83;100083.28;5081270;28;20448;-60
2023/07/31 01:35:37;;;;;;;1.90;1.42;;;;;;;18.62;84.20;100087.59;5088660;28;20328;-60
2023/07/31 01:38:03;;;;;;;3.92;1.67;;;;;;;18.58;84.02;100080.69;5088313;28;20030;-60
2023/07/31 01:40:29;;;;;;;3.72;1.35;;;;;;;18.52;84.40;100081.94;5083116;28;20030;-61
2023/07/31 01:42:54;;;;;;;4.10;1.35;;;;;;;18.49;84.65;100075.88;5088212;28;20028;-61
2023/07/31 01:45:19;;;;;;;2.40;1.33;;;;;;;18.48;84.93;100076.88;5080049;28;20555;-61
2023/07/31 01:47:45;;;;;;;3.80;1.42;;;;;;;18.48;84.98;100066.09;5086740;28;20032;-60
2023/07/31 01:50:10;;;;;;;2.97;1.58;;;;;;;18.48;84.50;100074.16;5087470;28;20112;-60
2023/07/31 01:52:36;;;;;;;2.60;1.50;;;;;;;18.48;83.74;100074.16;5072891;28;20103;-60
2023/07/31 01:55:01;;;;;;;3.22;1.88;;;;;;;18.50;83.21;100072.25;5083485;28;20032;-60
2023/07/31 01:57:27;;;;;;;3.03;1.38;;;;;;;18.48;82.22;100066.09;5088503;28;20062;-60
2023/07/31 01:59:55;;;;;;;3.33;1.65;;;;;;;17.84;85.36;100064.69;5082589;28;20036;-60
2023/07/31 02:02:22;;;;;;;2.80;1.95;;;;;;;17.67;87.05;100053.25;5067620;28;20071;-60
2023/07/31 02:04:48;;;;;;;2.50;1.40;;;;;;;17.62;87.64;100060.72;5085423;28;20031;-60
2023/07/31 02:07:13;;;;;;;4.80;1.63;;;;;;;17.59;87.17;100051.03;5086809;28;20088;-60
2023/07/31 02:09:39;;;;;;;4.72;1.40;;;;;;;17.60;87.74;100046.50;5081124;28;20060;-60
2023/07/31 02:12:05;;;;;;;4.80;1.60;;;;;;;18.03;85.88;100051.84;5071685;28;20119;-60
2023/07/31 02:14:30;;;;;;;3.13;1.67;;;;;;;18.33;82.97;100054.44;5085567;28;20028;-60
2023/07/31 02:16:55;;;;;;;7.38;2.47;;;;;;;18.48;82.48;100047.22;5088812;28;20120;-59
2023/07/31 02:19:21;;;;;;;2.83;1.60;;;;;;;18.52;81.87;100043.41;5087897;28;20046;-60
2023/07/31 02:21:46;;;;;;;2.72;1.33;;;;;;;18.53;81.43;100042.41;5088852;28;20026;-60
2023/07/31 02:24:12;;;;;;;4.97;1.50;;;;;;;18.47;81.46;100037.44;5087640;28;20651;-60
2023/07/31 02:26:37;;;;;;;4.07;1.55;;;;;;;18.51;81.88;100022.78;5085647;28;20039;-60
2023/07/31 02:29:03;;;;;;;3.42;1.67;;;;;;;18.49;81.61;100025.59;5069180;28;20023;-59
2023/07/31 02:31:28;;;;;;;3.03;1.55;;;;;;;18.53;81.68;100034.34;5086705;28;20031;-60
2023/07/31 02:33:54;;;;;;;1.90;1.30;;;;;;;18.51;81.75;100033.56;5088262;28;20027;-60
2023/07/31 02:36:19;;;;;;;3.75;1.85;;;;;;;18.48;81.51;100025.69;5086439;28;20035;-60
2023/07/31 02:38:45;;;;;;;4.68;1.40;;;;;;;18.51;81.47;100020.09;5084866;28;20661;-60
2023/07/31 02:41:10;;;;;;;3.60;2.00;;;;;;;18.52;81.64;100032.63;5086609;28;20039;-60
2023/07/31 02:43:35;;;;;;;4.80;1.40;;;;;;;18.49;81.89;100028.28;5086460;28;20027;-60
2023/07/31 02:46:01;;;;;;;3.85;1.90;;;;;;;18.51;81.66;100020.97;5069803;28;20372;-60
2023/07/31 02:48:26;;;;;;;3.47;1.83;;;;;;;18.52;81.43;100024.53;5081260;28;20934;-60
2023/07/31 02:50:51;;;;;;;3.90;1.50;;;;;;;18.50;81.76;100021.06;5087140;28;20028;-60
2023/07/31 02:53:17;;;;;;;2.88;1.33;;;;;;;18.49;81.91;100027.41;5081844;28;20016;-61
2023/07/31 02:55:42;;;;;;;5.93;1.55;;;;;;;18.45;81.67;100032.13;5079499;28;20036;-60
2023/07/31 02:58:08;;;;;;;5.10;1.67;;;;;;;18.43;81.26;100030.50;5086553;28;20387;-60
2023/07/31 03:00:33;;;;;;;2.80;1.63;;;;;;;18.45;81.91;100025.88;5073071;28;20031;-60
2023/07/31 03:02:58;;;;;;;5.35;1.73;;;;;;;18.50;81.55;100039.94;5077153;28;20028;-60
2023/07/31 03:05:24;;;;;;;3.92;1.50;;;;;;;18.55;81.70;100037.81;5077259;28;20028;-60
2023/07/31 03:07:49;;;;;;;4.35;1.70;;;;;;;18.57;82.37;100023.25;5079914;28;20612;-60
2023/07/31 03:10:15;;;;;;;6.10;1.63;;;;;;;18.58;81.33;100026.81;5082093;28;20028;-60
2023/07/31 03:12:41;;;;;;;4.38;1.75;;;;;;;18.54;81.78;100019.88;5066872;28;20033;-60
2023/07/31 03:15:07;;;;;;;5.43;1.55;;;;;;;18.56;82.41;100023.34;5074217;28;20040;-60
2023/07/31 03:17:32;;;;;;;5.20;2.30;;;;;;;18.56;82.74;100023.34;5087688;28;20502;-60
2023/07/31 03:19:57;;;;;;;16.70;2.70;;;;;;;18.53;82.24;100018.16;5085332;28;20214;-60
2023/07/31 03:22:23;;;;;;;9.55;1.83;;;;;;;18.51;82.00;100022.78;5075898;28;20039;-60
2023/07/31 03:24:48;;;;;;;7.20;1.98;;;;;;;18.51;81.82;100023.66;5067733;28;20406;-60
2023/07/31 03:27:14;;;;;;;6.97;2.00;;;;;;;18.45;81.81;100020.50;5076092;28;20514;-60
2023/07/31 03:29:39;;;;;;;11.32;2.45;;;;;;;18.50;81.81;100029.16;5085986;28;20071;-60
2023/07/31 03:32:05;;;;;;;6.68;2.05;;;;;;;18.46;82.54;100022.22;5067453;28;20115;-60
2023/07/31 03:34:31;;;;;;;4.95;1.38;;;;;;;18.44;82.69;100033.09;5073972;28;20043;-60
2023/07/31 03:36:57;;;;;;;6.57;2.28;;;;;;;18.42;82.27;100031.47;5078604;28;20667;-60
2023/07/31 03:39:23;;;;;;;3.47;1.48;;;;;;;18.41;82.19;100029.72;5084032;28;20039;-61
2023/07/31 03:41:48;;;;;;;5.43;1.40;;;;;;;18.46;82.13;100031.16;5066706;28;20029;-60
2023/07/31 03:44:14;;;;;;;2.47;1.52;;;;;;;18.43;82.63;100027.81;5078479;28;20031;-60
2023/07/31 03:46:39;;;;;;;3.63;1.38;;;;;;;18.44;82.92;100034.91;5069740;28;20031;-60
2023/07/31 03:49:05;;;;;;;4.05;1.80;;;;;;;18.43;82.89;100034.06;5073837;28;22031;-60
2023/07/31 03:51:30;;;;;;;4.18;1.73;;;;;;;18.42;83.27;100031.47;5089855;28;20073;-61
2023/07/31 03:53:55;;;;;;;3.30;1.55;;;;;;;18.40;82.89;100033.41;5080517;28;20024;-60
2023/07/31 03:56:21;;;;;;;4.28;1.42;;;;;;;18.40;83.22;100026.19;5078594;28;20028;-61
2023/07/31 03:58:46;;;;;;;5.00;1.50;;;;;;;18.40;83.17;100038.78;5071540;28;20101;-60
2023/07/31 04:01:11;;;;;;;3.30;1.50;;;;;;;18.40;83.14;100038.78;5070053;28;20035;-60
2023/07/31 04:03:37;;;;;;;3.95;1.40;;;;;;;18.36;83.25;100047.03;5071615;28;20650;-60
2023/07/31 04:06:02;;;;;;;4.35;1.45;;;;;;;18.36;82.59;100038.06;5086742;28;20024;-61
2023/07/31 04:08:28;;;;;;;3.75;1.60;;;;;;;18.41;82.60;100033.28;5087268;28;20031;-60
2023/07/31 04:10:53;;;;;;;2.85;1.35;;;;;;;18.37;83.10;100031.72;5080388;28;20029;-60
2023/07/31 04:13:19;;;;;;;1.50;1.20;;;;;;;18.31;82.32;100029.44;5077912;28;20164;-60
2023/07/31 04:15:50;;;;;;;5.72;1.80;;;;;;;18.36;82.13;100028.19;5075762;28;20119;-60
2023/07/31 04:18:15;;;;;;;4.60;1.67;;;;;;;18.44;82.95;100018.75;5079280;28;20058;-60
2023/07/31 04:30:45;;;;;;;5.55;1.42;;;;;;;18.54;82.21;100015.38;3250752;28;22142;-60
2023/07/31 04:33:11;;;;;;;4.90;1.50;;;;;;;18.55;82.13;100019.78;5089375;28;20032;-60
2023/07/31 04:35:36;;;;;;;2.28;1.30;;;;;;;18.63;81.87;100016.59;5089663;28;20770;-60
2023/07/31 04:38:02;;;;;;;6.07;1.80;;;;;;;18.64;81.27;100015.63;5090167;28;20035;-61
2023/07/31 04:40:27;;;;;;;5.35;1.83;;;;;;;18.70;81.67;100017.94;5090060;28;20459;-61
2023/07/31 04:42:53;;;;;;;4.28;1.58;;;;;;;18.78;81.41;100021.00;5075786;28;20024;-60
2023/07/31 04:45:18;;;;;;;5.15;1.65;;;;;;;18.74;81.46;100017.63;5088752;28;20038;-60
2023/07/31 04:47:43;;;;;;;6.15;1.50;;;;;;;18.78;80.88;100019.16;5089394;28;20054;-60
2023/07/31 04:50:09;;;;;;;4.07;1.40;;;;;;;18.85;80.66;100008.81;5069404;28;20360;-60
2023/07/31 04:52:35;;;;;;;4.35;1.88;;;;;;;18.89;81.05;100015.75;5081984;28;20060;-60
2023/07/31 04:55:00;;;;;;;9.98;2.00;;;;;;;18.92;80.67;100015.53;5089134;28;20507;-61
2023/07/31 04:57:26;;;;;;;9.48;1.98;;;;;;;18.97;80.75;100021.50;5089144;28;20032;-60
2023/07/31 04:59:51;;;;;;;4.57;1.75;;;;;;;19.03;80.79;100023.78;5086866;28;20092;-61
2023/07/31 05:02:16;;;;;;;7.72;1.63;;;;;;;19.10;80.32;100019.69;5082525;28;20032;-60
2023/07/31 05:04:42;;;;;;;4.70;1.48;;;;;;;19.14;80.29;100021.25;5089998;28;20032;-59
2023/07/31 05:07:07;;;;;;;4.80;1.48;;;;;;;19.20;80.25;100027.09;5083132;28;20665;-60
2023/07/31 05:09:33;;;;;;;4.65;1.45;;;;;;;19.23;80.10;100018.78;5090363;28;20498;-60
2023/07/31 05:11:58;;;;;;;4.30;1.80;;;;;;;19.32;79.70;100017.31;5072580;28;20028;-61
2023/07/31 05:14:24;;;;;;;2.83;1.30;;;;;;;19.32;78.99;100020.03;5083038;28;20028;-60
2023/07/31 05:16:49;;;;;;;2.65;1.35;;;;;;;19.30;78.82;100011.16;5082114;28;20036;-59
2023/07/31 05:19:14;;;;;;;4.00;1.50;;;;;;;19.36;78.77;100014.31;5090017;28;20895;-60
2023/07/31 05:21:40;;;;;;;5.63;1.50;;;;;;;19.37;78.58;100017.88;5081164;28;20036;-60
2023/07/31 05:24:06;;;;;;;3.63;1.38;;;;;;;19.38;77.92;100008.81;5086595;28;20043;-60
2023/07/31 05:26:32;;;;;;;6.85;1.75;;;;;;;19.47;77.52;100008.19;5087996;28;20530;-60
2023/07/31 05:28:58;;;;;;;4.43;1.30;;;;;;;19.58;77.07;100008.31;5087896;28;20020;-61
2023/07/31 05:31:24;;;;;;;3.17;1.58;;;;;;;19.68;76.61;100012.09;5076996;28;20048;-60
2023/07/31 05:33:50;;;;;;;4.82;1.70;;;;;;;19.80;75.94;100000.44;5080921;28;20420;-60
2023/07/31 05:36:15;;;;;;;3.58;1.40;;;;;;;19.85;76.08;100006.34;5078173;28;20031;-59
2023/07/31 05:38:42;;;;;;;4.53;1.77;;;;;;;19.86;75.55;100008.09;5072121;28;20035;-60
2023/07/31 05:41:07;;;;;;;8.30;1.73;;;;;;;19.92;74.77;99996.00;5081404;28;20031;-60
2023/07/31 05:43:33;;;;;;;3.35;1.13;;;;;;;20.01;74.39;99990.81;5082153;28;20032;-60
2023/07/31 05:45:58;;;;;;;4.00;1.58;;;;;;;19.95;73.83;99995.78;5084587;28;20032;-60
2023/07/31 05:48:23;;;;;;;2.58;1.20;;;;;;;20.06;73.62;99995.88;5080630;28;20123;-60
2023/07/31 05:50:49;;;;;;;3.65;1.33;;;;;;;20.12;73.15;99996.28;5076510;28;20479;-61
2023/07/31 05:53:14;;;;;;;4.10;1.20;;;;;;;20.17;72.99;99985.19;5076572;28;20036;-61
2023/07/31 05:55:40;;;;;;;3.20;1.30;;;;;;;20.25;72.35;99980.09;5085900;28;20210;-60
2023/07/31 05:58:05;;;;;;;3.58;1.30;;;;;;;20.31;72.30;99969.69;5075863;28;20020;-60
2023/07/31 06:00:30;;;;;;;4.43;1.35;;;;;;;20.31;71.40;99977.81;5081604;28;20040;-59
2023/07/31 06:02:56;;;;;;;4.07;1.52;;;;;;;20.23;71.99;99974.81;5080702;28;20028;-60
2023/07/31 06:05:22;;;;;;;4.80;1.80;;;;;;;20.31;72.41;99975.09;5078089;28;20023;-60
2023/07/31 06:07:47;;;;;;;2.95;1.20;;;;;;;20.25;72.59;99964.75;5074926;28;20024;-60
2023/07/31 06:10:13;;;;;;;1.95;1.17;;;;;;;20.30;72.33;99970.69;5077038;28;20028;-60
2023/07/31 06:12:38;;;;;;;3.25;1.42;;;;;;;20.31;72.79;99976.97;5072834;28;20097;-60
2023/07/31 06:15:04;;;;;;;2.80;1.10;;;;;;;20.28;71.79;99969.09;5070485;28;20028;-59
2023/07/31 06:17:30;;;;;;;3.35;1.40;;;;;;;20.30;72.01;99976.09;5086358;28;20365;-61
2023/07/31 06:19:56;;;;;;;3.42;1.33;;;;;;;20.34;73.05;99980.31;5073214;28;20039;-60
2023/07/31 06:22:22;;;;;;;2.38;1.30;;;;;;;20.42;73.18;99982.44;5079695;28;20687;-60
2023/07/31 06:24:47;;;;;;;3.13;1.52;;;;;;;20.42;72.15;99988.72;5070909;28;20044;-61
2023/07/31 06:27:13;;;;;;;5.00;1.33;;;;;;;20.39;72.28;99988.94;5072377;28;20542;-60
2023/07/31 06:29:38;;;;;;;4.05;1.40;;;;;;;20.45;73.48;99993.88;5065818;28;20025;-60
2023/07/31 06:32:04;;;;;;;3.20;1.23;;;;;;;20.43;72.58;99990.44;5072965;28;20251;-61
2023/07/31 06:34:29;;;;;;;4.43;1.23;;;;;;;20.53;73.76;99996.88;5077056;28;20171;-62
2023/07/31 06:36:56;;;;;;;9.50;2.25;;;;;;;20.56;73.19;100001.22;5074503;28;20020;-61
2023/07/31 06:39:21;;;;;;;8.05;1.85;;;;;;;20.59;72.40;99982.91;5081780;28;20078;-61
2023/07/31 06:41:46;;;;;;;1.95;1.15;;;;;;;20.77;71.19;99994.22;5065760;28;20055;-59
2023/07/31 06:44:12;;;;;;;5.38;1.92;;;;;;;20.86;71.07;99999.78;5079813;28;20391;-61
2023/07/31 06:46:37;;;;;;;3.17;1.08;;;;;;;20.98;70.18;99981.81;5071651;28;20908;-59
2023/07/31 06:49:03;;;;;;;6.03;1.40;;;;;;;20.88;70.27;99994.28;5073465;28;20043;-61
2023/07/31 06:51:31;;;;;;;2.83;1.30;;;;;;;20.87;70.37;99996.09;5068159;28;20028;-60
2023/07/31 06:53:56;;;;;;;4.55;1.27;;;;;;;20.79;70.51;99993.09;5069030;28;20036;-59
2023/07/31 06:56:22;;;;;;;3.95;1.38;;;;;;;20.80;70.15;99994.84;5072013;28;20039;-60
2023/07/31 06:58:47;;;;;;;3.60;1.30;;;;;;;20.79;70.15;99987.69;5070379;28;20036;-59
2023/07/31 07:01:13;;;;;;;7.60;1.38;;;;;;;20.89;70.12;99983.34;5076769;28;20123;-59
2023/07/31 07:03:38;;;;;;;4.05;1.25;;;;;;;20.89;69.17;99983.34;5066951;28;20077;-59
2023/07/31 07:06:04;;;;;;;5.13;1.35;;;;;;;21.03;70.05;99973.34;5075262;28;20043;-59
2023/07/31 07:08:29;;;;;;;3.15;1.30;;;;;;;21.07;69.30;99969.44;5071502;28;20714;-59
2023/07/31 07:10:55;;;;;;;6.68;1.50;;;;;;;21.14;68.47;99965.25;5081817;28;20032;-60
2023/07/31 07:13:22;;;;;;;6.57;1.50;;;;;;;21.27;68.33;99966.06;5076984;28;20040;-60
2023/07/31 07:15:50;;;;;;;6.30;1.45;;;;;;;21.35;67.16;99977.16;5082214;28;20599;-60
2023/07/31 07:18:16;;;;;;;5.05;1.40;;;;;;;21.61;67.77;99976.88;5070262;28;20024;-59
2023/07/31 07:20:53;;;;;;;4.00;1.50;;;;;;;21.85;66.79;99974.09;5083494;28;20088;-60
2023/07/31 07:23:19;;;;;;;4.25;1.40;;;;;;;22.15;65.69;99966.22;5072287;28;20472;-59
2023/07/31 07:25:46;;;;;;;6.32;1.40;;;;;;;22.27;63.95;99969.78;5078545;28;20119;-60
2023/07/31 07:28:11;;;;;;;4.70;1.30;;;;;;;22.42;63.70;99969.38;5079793;28;20090;-60
2023/07/31 07:30:36;;;;;;;5.72;1.42;;;;;;;22.56;63.43;99966.44;5079639;28;20475;-59
2023/07/31 07:33:02;;;;;;;3.85;1.35;;;;;;;22.56;62.89;99966.44;5085169;28;20043;-59
2023/07/31 07:35:28;;;;;;;2.80;1.45;;;;;;;22.48;63.00;99960.78;5086976;28;20054;-60
2023/07/31 07:37:53;;;;;;;5.95;1.45;;;;;;;22.38;62.66;99962.50;5079696;28;20028;-60
2023/07/31 07:40:19;;;;;;;5.45;1.83;;;;;;;22.49;64.02;99951.63;5070383;28;20051;-59
2023/07/31 07:42:45;;;;;;;4.28;1.30;;;;;;;22.46;62.74;99959.16;5070420;28;20040;-60
2023/07/31 07:45:10;;;;;;;3.22;1.02;;;;;;;22.67;63.25;99955.56;5081360;28;20044;-59
2023/07/31 07:47:35;;;;;;;5.28;2.08;;;;;;;22.82;63.41;99945.28;5078827;28;20069;-59
2023/07/31 07:50:01;;;;;;;4.82;1.65;;;;;;;22.92;62.50;99952.53;5074954;28;20491;-58
2023/07/31 07:52:26;;;;;;;2.22;1.02;;;;;;;22.91;60.83;99960.81;5078983;28;20127;-59
2023/07/31 07:54:52;;;;;;;2.75;1.25;;;;;;;22.97;61.54;99961.16;5083655;28;20070;-58
2023/07/31 07:57:18;;;;;;;4.30;1.23;;;;;;;22.96;60.87;99961.28;5084471;28;20031;-59
2023/07/31 07:59:43;;;;;;;5.93;1.27;;;;;;;23.31;60.64;99954.59;5076031;28;20025;-60
2023/07/31 08:02:09;;;;;;;2.70;1.08;;;;;;;23.76;59.75;99955.19;5072869;28;20033;-59
2023/07/31 08:04:34;;;;;;;3.85;1.23;;;;;;;23.76;58.65;99965.19;5070725;28;20572;-59
2023/07/31 08:07:00;;;;;;;5.20;1.30;;;;;;;23.60;58.48;99953.94;5076646;28;20114;-58
2023/07/31 08:09:25;;;;;;;18.40;3.53;;;;;;;23.49;59.91;99964.88;5090277;28;20028;-59
2023/07/31 08:11:50;;;;;;;4.90;1.80;;;;;;;23.61;61.38;99964.66;5078458;28;20036;-59
2023/07/31 08:14:16;;;;;;;5.38;1.67;;;;;;;23.78;60.07;99958.63;5086616;28;20111;-59
2023/07/31 08:16:42;;;;;;;4.65;1.25;;;;;;;23.94;59.00;99952.69;5089977;28;20032;-59
2023/07/31 08:19:07;;;;;;;2.97;1.30;;;;;;;23.85;59.06;99953.53;5077632;28;20031;-59
2023/07/31 08:21:32;;;;;;;3.47;1.67;;;;;;;23.90;59.47;99954.84;5090758;28;20068;-59
2023/07/31 08:23:58;;;;;;;4.50;1.85;;;;;;;23.88;59.32;99953.25;5086824;28;20425;-59
2023/07/31 08:26:23;;;;;;;4.65;1.17;;;;;;;24.16;59.31;99936.25;5088983;28;20450;-59
2023/07/31 08:28:49;;;;;;;5.95;1.30;;;;;;;24.78;57.49;99931.41;5089789;28;20522;-59
2023/07/31 08:31:14;;;;;;;3.88;1.33;;;;;;;25.14;56.39;99938.88;5088135;28;20152;-58
2023/07/31 08:33:40;;;;;;;5.05;1.30;;;;;;;25.19;56.33;99933.84;5089978;28;20107;-59
2023/07/31 08:36:06;;;;;;;4.03;1.30;;;;;;;24.88;55.13;99940.44;5089569;28;20028;-60
2023/07/31 08:38:31;;;;;;;4.05;1.15;;;;;;;25.00;54.65;99933.88;5088832;28;20839;-59
2023/07/31 08:40:57;;;;;;;6.03;1.48;;;;;;;25.24;55.59;99928.00;5089773;28;20028;-59
2023/07/31 08:43:26;;;;;;;3.28;0.98;;;;;;;25.30;55.13;99930.13;5088435;28;20035;-61
2023/07/31 08:45:51;;;;;;;4.05;1.27;;;;;;;25.21;53.54;99914.66;5076287;28;20110;-59
2023/07/31 08:48:17;;;;;;;8.02;1.27;;;;;;;25.17;54.93;99915.97;5081822;28;20024;-60
2023/07/31 08:50:43;;;;;;;2.80;1.00;;;;;;;25.17;54.52;99908.63;5090157;28;20028;-58
2023/07/31 08:53:09;;;;;;;5.07;1.33;;;;;;;25.30;53.34;99913.78;5090310;28;20048;-59
2023/07/31 08:55:35;;;;;;;4.32;1.55;;;;;;;25.35;51.95;99911.53;5088940;28;20357;-60
2023/07/31 08:58:04;;;;;;;3.25;1.13;;;;;;;25.88;52.40;99904.50;5089042;28;20035;-59
2023/07/31 09:00:30;;;;;;;6.13;1.40;;;;;;;25.96;51.94;99905.44;5087298;28;20032;-59
2023/07/31 09:03:02;;;;;;;4.80;1.33;;;;;;;26.21;51.22;99912.13;5081966;28;20031;-60
2023/07/31 09:05:29;;;;;;;2.60;1.10;;;;;;;26.71;48.65;99904.38;5084871;28;20030;-59
2023/07/31 09:07:56;;;;;;;6.28;1.30;;;;;;;26.68;47.47;99905.56;5082677;28;20405;-59
2023/07/31 09:10:21;;;;;;;3.75;1.20;;;;;;;26.95;47.88;99896.44;5080249;28;20035;-59
2023/07/31 09:12:48;;;;;;;4.40;1.20;;;;;;;27.39;47.81;99892.75;5087322;28;20031;-59
2023/07/31 09:15:14;;;;;;;4.03;1.35;;;;;;;28.02;45.52;99888.72;5074692;28;20035;-59
2023/07/31 09:17:39;;;;;;;2.30;0.80;;;;;;;28.39;45.49;99891.97;5078318;28;20024;-59
2023/07/31 09:20:14;;;;;;;4.57;1.83;;;;;;;28.41;44.12;99889.06;5069414;28;20020;-59
2023/07/31 09:22:39;;;;;;;5.97;1.23;;;;;;;28.65;43.99;99882.84;5078933;28;20107;-60
2023/07/31 09:25:18;;;;;;;2.10;0.82;;;;;;;28.40;44.35;99870.94;5084271;28;20027;-60
2023/07/31 09:27:55;;;;;;;3.78;1.30;;;;;;;28.68;46.12;99868.81;5073595;28;20020;-59
2023/07/31 09:30:21;;;;;;;5.63;1.30;;;;;;;28.94;43.50;99858.56;5087882;28;20036;-59
2023/07/31 09:32:48;;;;;;;3.63;1.00;;;;;;;29.24;43.35;99852.44;5071892;28;20045;-60
2023/07/31 09:35:20;;;;;;;3.45;1.10;;;;;;;28.93;41.95;99851.38;5072725;28;20039;-60
2023/07/31 09:37:52;;;;;;;7.20;1.40;;;;;;;28.48;43.50;99849.91;5074965;28;20089;-60
2023/07/31 09:40:33;;;;;;;2.97;1.30;;;;;;;27.84;44.00;99849.63;5086874;28;20023;-59
2023/07/31 09:43:03;;;;;;;3.92;1.30;;;;;;;27.83;44.43;99838.84;5083577;28;20119;-58
2023/07/31 09:45:30;;;;;;;2.28;1.15;;;;;;;27.89;44.37;99847.28;5086071;28;20039;-59
2023/07/31 09:47:56;;;;;;;4.32;1.20;;;;;;;27.60;44.75;99849.50;5085882;28;20590;-59
2023/07/31 09:50:24;;;;;;;5.43;1.42;;;;;;;27.48;45.16;99839.84;5072590;28;20396;-59
2023/07/31 09:52:51;;;;;;;4.75;1.25;;;;;;;27.68;45.83;99838.63;5067228;28;20036;-59
2023/07/31 09:55:17;;;;;;;4.28;1.40;;;;;;;27.81;45.32;99841.75;5085013;28;20024;-59
2023/07/31 09:57:46;;;;;;;5.90;1.27;;;;;;;27.89;44.32;99839.09;5086417;28;20047;-60
2023/07/31 10:00:13;;;;;;;4.00;1.20;;;;;;;28.01;42.76;99837.78;5086996;28;20051;-59
2023/07/31 10:02:39;;;;;;;4.03;1.17;;;;;;;27.88;44.12;99826.41;5072026;28;20032;-59
2023/07/31 10:05:17;;;;;;;2.78;1.15;;;;;;;27.69;44.21;99834.88;5125122;27;20180;-61
2023/07/31 10:07:53;;;;;;;4.05;1.23;;;;;;;27.45;45.56;99834.72;5104646;28;20436;-59
2023/07/31 10:10:20;;;;;;;4.65;1.17;;;;;;;27.06;45.05;99844.31;5092141;28;20024;-60
2023/07/31 10:12:48;;;;;;;3.88;1.35;;;;;;;27.01;45.80;99831.16;5098943;28;20032;-60
2023/07/31 10:15:14;;;;;;;3.92;1.40;;;;;;;26.87;46.42;99849.97;5090426;28;20107;-60
2023/07/31 10:17:40;;;;;;;4.53;1.30;;;;;;;26.65;45.54;99850.38;5098559;28;20024;-59
2023/07/31 10:20:06;;;;;;;4.75;1.48;;;;;;;26.58;46.67;99854.75;5098258;28;20052;-61
2023/07/31 10:22:33;;;;;;;5.63;1.50;;;;;;;26.48;47.06;99845.78;5096859;28;20542;-59
2023/07/31 10:25:00;;;;;;;2.72;0.95;;;;;;;26.45;48.13;99851.53;5090587;28;20032;-60
2023/07/31 10:27:26;;;;;;;4.90;1.63;;;;;;;26.78;46.82;99851.75;5093301;28;20032;-60
2023/07/31 10:29:54;;;;;;;4.00;1.50;;;;;;;26.80;46.44;99846.13;5087184;28;20391;-60
2023/07/31 10:32:21;;;;;;;3.92;1.40;;;;;;;26.75;46.80;99846.63;5091690;28;20020;-60
2023/07/31 10:34:48;;;;;;;7.55;2.95;;;;;;;26.50;46.99;99841.91;5090862;28;20031;-59
2023/07/31 10:37:42;;;;;;;2.63;1.13;;;;;;;26.42;47.91;99840.94;5096244;28;20516;-60
2023/07/31 10:40:21;;;;;;;5.32;1.55;;;;;;;26.55;47.97;99850.47;5090305;28;20024;-60
2023/07/31 10:42:48;;;;;;;3.20;1.30;;;;;;;26.44;48.75;99853.41;5093969;28;20623;-60
2023/07/31 10:45:27;;;;;;;2.83;1.10;;;;;;;26.27;47.76;99842.47;5090278;28;20085;-61
2023/07/31 10:48:00;;;;;;;3.47;1.38;;;;;;;25.80;49.15;99852.59;5095560;28;20145;-59
2023/07/31 10:50:26;;;;;;;6.90;1.75;;;;;;;25.90;49.60;99837.91;5084684;28;20031;-60
2023/07/31 10:52:55;;;;;;;5.32;1.85;;;;;;;26.14;50.91;99840.13;5086082;28;20029;-59
2023/07/31 10:55:26;;;;;;;3.88;1.38;;;;;;;26.23;48.72;99831.00;5093944;28;20035;-59
2023/07/31 10:57:56;;;;;;;5.22;1.42;;;;;;;26.29;48.75;99837.72;5093481;28;20352;-60
2023/07/31 11:00:27;;;;;;;4.97;1.45;;;;;;;26.59;47.89;99830.03;5103049;28;20032;-59
2023/07/31 11:03:01;;;;;;;3.78;1.30;;;;;;;26.61;46.56;99836.19;5086161;28;20031;-59
2023/07/31 11:05:49;;;;;;;4.10;1.40;;;;;;;26.81;49.17;99824.16;5083034;28;20028;-60
2023/07/31 11:08:16;;;;;;;2.83;1.27;;;;;;;27.00;48.28;99825.84;5092830;28;20043;-60
2023/07/31 11:10:43;;;;;;;4.13;1.10;;;;;;;27.15;47.14;99827.81;5083470;28;20036;-61
2023/07/31 11:13:08;;;;;;;2.05;1.08;;;;;;;27.30;47.32;99825.41;5087265;28;20570;-60
2023/07/31 11:15:34;;;;;;;1.95;1.00;;;;;;;27.30;46.85;99830.03;5083419;28;20035;-59
2023/07/31 11:18:03;;;;;;;3.38;1.17;;;;;;;27.68;45.86;99818.63;5076281;28;20111;-59
2023/07/31 11:20:32;;;;;;;4.15;1.30;;;;;;;28.48;44.68;99812.63;5070540;28;20032;-61
2023/07/31 11:23:02;;;;;;;3.40;1.10;;;;;;;28.66;43.70;99816.09;5081536;28;20377;-61
2023/07/31 11:25:30;;;;;;;3.13;1.02;;;;;;;28.70;43.48;99787.38;5059599;28;20114;-61
2023/07/31 11:27:56;;;;;;;9.27;1.58;;;;;;;29.11;44.21;99806.38;5083360;28;20055;-60
2023/07/31 11:30:22;;;;;;;3.92;1.13;;;;;;;29.38;42.85;99807.88;5068688;28;20060;-60
2023/07/31 11:32:47;;;;;;;4.40;1.10;;;;;;;29.38;42.24;99803.25;5068663;28;20119;-59
2023/07/31 11:35:13;;;;;;;3.33;1.08;;;;;;;29.08;43.00;99795.75;5079196;28;20032;-60
2023/07/31 11:37:40;;;;;;;5.05;1.00;;;;;;;28.84;43.25;99792.16;5080695;28;20456;-60